sensor_id;sensor_type;location;lat;lon;timestamp;P1;durP1;ratioP1;P2;durP2;ratioP2
45764;SDS011;31474;45.332;10.230;2022-08-19T00:01:07;8.63;;;5.38;;
45764;SDS011;31474;45.332;10.230;2022-08-19T00:03:33;9.52;;;5.88;;
45764;SDS011;31474;45.332;10.230;2022-08-19T00:05:59;9.75;;;5.35;;
45764;SDS011;31474;45.332;10.230;2022-08-19T00:08:25;8.15;;;5.75;;
45764;SDS011;31474;45.332;10.230;2022-08-19T00:10:50;14.02;;;6.22;;
45764;SDS011;31474;45.332;10.230;2022-08-19T00:13:17;7.78;;;6.13;;
45764;SDS011;31474;45.332;10.230;2022-08-19T00:15:43;7.18;;;6.05;;
45764;SDS011;31474;45.332;10.230;2022-08-19T00:18:09;9.90;;;6.70;;
45764;SDS011;31474;45.332;10.230;2022-08-19T00:20:35;10.90;;;8.10;;
45764;SDS011;31474;45.332;10.230;2022-08-19T00:23:03;11.65;;;8.52;;
45764;SDS011;31474;45.332;10.230;2022-08-19T00:25:28;14.93;;;9.07;;
45764;SDS011;31474;45.332;10.230;2022-08-19T00:27:54;13.77;;;8.85;;
45764;SDS011;31474;45.332;10.230;2022-08-19T00:30:20;12.48;;;8.80;;
45764;SDS011;31474;45.332;10.230;2022-08-19T00:32:46;12.23;;;8.85;;
45764;SDS011;31474;45.332;10.230;2022-08-19T00:35:12;16.38;;;8.95;;
45764;SDS011;31474;45.332;10.230;2022-08-19T00:37:38;14.38;;;9.13;;
45764;SDS011;31474;45.332;10.230;2022-08-19T00:40:08;11.02;;;9.00;;
45764;SDS011;31474;45.332;10.230;2022-08-19T00:42:35;10.82;;;8.90;;
45764;SDS011;31474;45.332;10.230;2022-08-19T00:45:00;10.90;;;9.00;;
45764;SDS011;31474;45.332;10.230;2022-08-19T00:47:27;12.82;;;8.90;;
45764;SDS011;31474;45.332;10.230;2022-08-19T00:49:54;12.50;;;9.23;;
45764;SDS011;31474;45.332;10.230;2022-08-19T00:52:35;12.85;;;8.80;;
45764;SDS011;31474;45.332;10.230;2022-08-19T00:55:05;13.18;;;8.65;;
45764;SDS011;31474;45.332;10.230;2022-08-19T00:57:37;17.20;;;8.43;;
45764;SDS011;31474;45.332;10.230;2022-08-19T01:00:06;13.27;;;9.80;;
45764;SDS011;31474;45.332;10.230;2022-08-19T01:02:37;18.45;;;9.23;;
45764;SDS011;31474;45.332;10.230;2022-08-19T01:05:05;15.77;;;9.35;;
45764;SDS011;31474;45.332;10.230;2022-08-19T01:07:35;13.48;;;8.40;;
45764;SDS011;31474;45.332;10.230;2022-08-19T01:10:04;11.75;;;8.63;;
45764;SDS011;31474;45.332;10.230;2022-08-19T01:12:35;12.05;;;8.77;;
45764;SDS011;31474;45.332;10.230;2022-08-19T01:15:02;12.25;;;8.57;;
45764;SDS011;31474;45.332;10.230;2022-08-19T01:17:28;12.98;;;8.70;;
45764;SDS011;31474;45.332;10.230;2022-08-19T01:19:54;13.35;;;7.88;;
45764;SDS011;31474;45.332;10.230;2022-08-19T01:24:49;12.00;;;7.80;;
45764;SDS011;31474;45.332;10.230;2022-08-19T01:27:16;12.00;;;8.82;;
45764;SDS011;31474;45.332;10.230;2022-08-19T01:29:43;12.15;;;8.52;;
45764;SDS011;31474;45.332;10.230;2022-08-19T01:32:11;13.95;;;8.77;;
45764;SDS011;31474;45.332;10.230;2022-08-19T01:34:39;12.98;;;8.30;;
45764;SDS011;31474;45.332;10.230;2022-08-19T01:37:10;13.98;;;9.10;;
45764;SDS011;31474;45.332;10.230;2022-08-19T01:39:37;10.57;;;8.10;;
45764;SDS011;31474;45.332;10.230;2022-08-19T01:42:05;14.35;;;8.75;;
45764;SDS011;31474;45.332;10.230;2022-08-19T01:44:34;15.20;;;8.95;;
45764;SDS011;31474;45.332;10.230;2022-08-19T01:47:01;11.00;;;9.15;;
45764;SDS011;31474;45.332;10.230;2022-08-19T01:49:28;10.65;;;8.43;;
45764;SDS011;31474;45.332;10.230;2022-08-19T01:51:54;14.18;;;8.38;;
45764;SDS011;31474;45.332;10.230;2022-08-19T01:54:21;14.73;;;8.05;;
45764;SDS011;31474;45.332;10.230;2022-08-19T01:56:48;14.52;;;8.10;;
45764;SDS011;31474;45.332;10.230;2022-08-19T01:59:16;13.57;;;8.48;;
45764;SDS011;31474;45.332;10.230;2022-08-19T02:01:44;10.50;;;8.50;;
45764;SDS011;31474;45.332;10.230;2022-08-19T02:04:10;10.90;;;7.43;;
45764;SDS011;31474;45.332;10.230;2022-08-19T02:06:36;16.30;;;8.25;;
45764;SDS011;31474;45.332;10.230;2022-08-19T02:09:03;16.52;;;8.13;;
45764;SDS011;31474;45.332;10.230;2022-08-19T02:11:31;9.40;;;8.15;;
45764;SDS011;31474;45.332;10.230;2022-08-19T02:13:59;13.43;;;8.95;;
45764;SDS011;31474;45.332;10.230;2022-08-19T02:16:27;12.63;;;8.18;;
45764;SDS011;31474;45.332;10.230;2022-08-19T02:18:53;11.25;;;7.65;;
45764;SDS011;31474;45.332;10.230;2022-08-19T02:21:20;9.93;;;8.07;;
45764;SDS011;31474;45.332;10.230;2022-08-19T02:23:47;10.32;;;7.05;;
45764;SDS011;31474;45.332;10.230;2022-08-19T02:26:13;8.40;;;6.38;;
45764;SDS011;31474;45.332;10.230;2022-08-19T02:28:40;13.75;;;6.82;;
45764;SDS011;31474;45.332;10.230;2022-08-19T02:31:14;11.07;;;6.80;;
45764;SDS011;31474;45.332;10.230;2022-08-19T02:33:42;9.23;;;6.45;;
45764;SDS011;31474;45.332;10.230;2022-08-19T02:36:09;9.00;;;6.53;;
45764;SDS011;31474;45.332;10.230;2022-08-19T02:38:36;13.13;;;7.18;;
45764;SDS011;31474;45.332;10.230;2022-08-19T02:41:11;12.20;;;6.38;;
45764;SDS011;31474;45.332;10.230;2022-08-19T02:43:45;11.57;;;6.25;;
45764;SDS011;31474;45.332;10.230;2022-08-19T02:46:21;8.60;;;5.63;;
45764;SDS011;31474;45.332;10.230;2022-08-19T02:48:49;11.25;;;5.93;;
45764;SDS011;31474;45.332;10.230;2022-08-19T02:51:25;10.07;;;5.82;;
45764;SDS011;31474;45.332;10.230;2022-08-19T02:53:54;10.05;;;5.93;;
45764;SDS011;31474;45.332;10.230;2022-08-19T02:56:20;7.22;;;5.65;;
45764;SDS011;31474;45.332;10.230;2022-08-19T02:58:46;11.82;;;6.47;;
45764;SDS011;31474;45.332;10.230;2022-08-19T03:01:34;12.88;;;6.05;;
45764;SDS011;31474;45.332;10.230;2022-08-19T03:04:00;5.75;;;5.13;;
45764;SDS011;31474;45.332;10.230;2022-08-19T03:06:27;10.63;;;5.57;;
45764;SDS011;31474;45.332;10.230;2022-08-19T03:08:54;6.18;;;5.57;;
45764;SDS011;31474;45.332;10.230;2022-08-19T03:11:24;10.40;;;5.78;;
45764;SDS011;31474;45.332;10.230;2022-08-19T03:13:52;9.60;;;5.68;;
45764;SDS011;31474;45.332;10.230;2022-08-19T03:16:19;13.48;;;6.18;;
45764;SDS011;31474;45.332;10.230;2022-08-19T03:18:47;12.77;;;6.50;;
45764;SDS011;31474;45.332;10.230;2022-08-19T03:21:20;7.75;;;5.30;;
45764;SDS011;31474;45.332;10.230;2022-08-19T03:23:48;13.25;;;5.93;;
45764;SDS011;31474;45.332;10.230;2022-08-19T03:26:15;12.65;;;5.53;;
45764;SDS011;31474;45.332;10.230;2022-08-19T03:28:41;9.18;;;5.70;;
45764;SDS011;31474;45.332;10.230;2022-08-19T03:31:10;8.18;;;5.95;;
45764;SDS011;31474;45.332;10.230;2022-08-19T03:33:39;10.15;;;4.90;;
45764;SDS011;31474;45.332;10.230;2022-08-19T03:36:11;8.43;;;5.10;;
45764;SDS011;31474;45.332;10.230;2022-08-19T03:38:43;9.95;;;5.60;;
45764;SDS011;31474;45.332;10.230;2022-08-19T03:41:15;6.97;;;5.35;;
45764;SDS011;31474;45.332;10.230;2022-08-19T03:43:45;8.30;;;5.07;;
45764;SDS011;31474;45.332;10.230;2022-08-19T03:46:14;7.75;;;5.28;;
45764;SDS011;31474;45.332;10.230;2022-08-19T03:48:42;7.05;;;4.97;;
45764;SDS011;31474;45.332;10.230;2022-08-19T03:51:20;8.50;;;5.35;;
45764;SDS011;31474;45.332;10.230;2022-08-19T03:53:47;11.05;;;6.22;;
45764;SDS011;31474;45.332;10.230;2022-08-19T03:56:13;7.65;;;5.20;;
45764;SDS011;31474;45.332;10.230;2022-08-19T03:58:40;8.18;;;4.32;;
45764;SDS011;31474;45.332;10.230;2022-08-19T04:01:10;7.18;;;5.50;;
45764;SDS011;31474;45.332;10.230;2022-08-19T04:03:39;6.88;;;6.18;;
45764;SDS011;31474;45.332;10.230;2022-08-19T04:06:24;10.63;;;5.88;;
45764;SDS011;31474;45.332;10.230;2022-08-19T04:08:52;8.60;;;6.03;;
45764;SDS011;31474;45.332;10.230;2022-08-19T04:11:21;8.82;;;5.35;;
45764;SDS011;31474;45.332;10.230;2022-08-19T04:13:50;8.15;;;4.30;;
45764;SDS011;31474;45.332;10.230;2022-08-19T04:16:20;6.43;;;3.20;;
45764;SDS011;31474;45.332;10.230;2022-08-19T04:18:47;4.20;;;3.00;;
45764;SDS011;31474;45.332;10.230;2022-08-19T04:21:21;4.38;;;2.10;;
45764;SDS011;31474;45.332;10.230;2022-08-19T04:23:48;3.92;;;1.00;;
45764;SDS011;31474;45.332;10.230;2022-08-19T04:26:14;1.02;;;0.60;;
45764;SDS011;31474;45.332;10.230;2022-08-19T04:28:42;1.30;;;0.60;;
45764;SDS011;31474;45.332;10.230;2022-08-19T04:31:12;1.10;;;0.50;;
45764;SDS011;31474;45.332;10.230;2022-08-19T04:33:40;1.85;;;0.30;;
45764;SDS011;31474;45.332;10.230;2022-08-19T04:36:06;0.80;;;0.20;;
45764;SDS011;31474;45.332;10.230;2022-08-19T04:38:32;0.88;;;0.35;;
45764;SDS011;31474;45.332;10.230;2022-08-19T04:40:58;0.40;;;0.10;;
45764;SDS011;31474;45.332;10.230;2022-08-19T04:43:42;4.80;;;0.30;;
45764;SDS011;31474;45.332;10.230;2022-08-19T04:46:13;0.13;;;0.10;;
45764;SDS011;31474;45.332;10.230;2022-08-19T04:48:39;0.82;;;0.25;;
45764;SDS011;31474;45.332;10.230;2022-08-19T04:51:06;1.35;;;0.10;;
45764;SDS011;31474;45.332;10.230;2022-08-19T04:53:35;8.18;;;0.20;;
45764;SDS011;31474;45.332;10.230;2022-08-19T04:56:13;3.33;;;0.50;;
45764;SDS011;31474;45.332;10.230;2022-08-19T04:58:42;0.65;;;0.10;;
45764;SDS011;31474;45.332;10.230;2022-08-19T05:01:11;0.35;;;0.30;;
45764;SDS011;31474;45.332;10.230;2022-08-19T05:03:43;3.15;;;0.30;;
45764;SDS011;31474;45.332;10.230;2022-08-19T05:06:09;0.40;;;0.20;;
45764;SDS011;31474;45.332;10.230;2022-08-19T05:08:38;0.93;;;0.10;;
45764;SDS011;31474;45.332;10.230;2022-08-19T05:11:30;0.30;;;0.10;;
45764;SDS011;31474;45.332;10.230;2022-08-19T05:13:56;1.15;;;0.30;;
45764;SDS011;31474;45.332;10.230;2022-08-19T05:16:22;0.50;;;0.20;;
45764;SDS011;31474;45.332;10.230;2022-08-19T05:18:49;0.77;;;0.47;;
45764;SDS011;31474;45.332;10.230;2022-08-19T05:21:34;0.43;;;0.20;;
45764;SDS011;31474;45.332;10.230;2022-08-19T05:24:20;0.63;;;0.35;;
45764;SDS011;31474;45.332;10.230;2022-08-19T05:26:47;1.02;;;0.20;;
45764;SDS011;31474;45.332;10.230;2022-08-19T05:29:15;0.20;;;0.20;;
45764;SDS011;31474;45.332;10.230;2022-08-19T05:31:43;1.27;;;0.20;;
45764;SDS011;31474;45.332;10.230;2022-08-19T05:34:10;0.57;;;0.25;;
45764;SDS011;31474;45.332;10.230;2022-08-19T05:36:37;1.85;;;0.43;;
45764;SDS011;31474;45.332;10.230;2022-08-19T05:39:10;2.65;;;0.50;;
45764;SDS011;31474;45.332;10.230;2022-08-19T05:41:44;1.20;;;0.50;;
45764;SDS011;31474;45.332;10.230;2022-08-19T05:44:12;1.00;;;0.30;;
45764;SDS011;31474;45.332;10.230;2022-08-19T05:46:39;1.33;;;0.55;;
45764;SDS011;31474;45.332;10.230;2022-08-19T05:49:07;1.65;;;1.00;;
45764;SDS011;31474;45.332;10.230;2022-08-19T05:51:34;0.85;;;0.40;;
45764;SDS011;31474;45.332;10.230;2022-08-19T05:54:02;1.08;;;0.40;;
45764;SDS011;31474;45.332;10.230;2022-08-19T05:56:30;2.08;;;0.70;;
45764;SDS011;31474;45.332;10.230;2022-08-19T05:58:56;4.30;;;0.50;;
45764;SDS011;31474;45.332;10.230;2022-08-19T06:01:24;2.70;;;0.77;;
45764;SDS011;31474;45.332;10.230;2022-08-19T06:03:51;1.58;;;0.60;;
45764;SDS011;31474;45.332;10.230;2022-08-19T06:06:17;4.18;;;0.63;;
45764;SDS011;31474;45.332;10.230;2022-08-19T06:08:43;2.55;;;0.63;;
45764;SDS011;31474;45.332;10.230;2022-08-19T06:13:50;1.58;;;0.80;;
45764;SDS011;31474;45.332;10.230;2022-08-19T06:16:18;1.63;;;0.70;;
45764;SDS011;31474;45.332;10.230;2022-08-19T06:18:51;2.45;;;0.95;;
45764;SDS011;31474;45.332;10.230;2022-08-19T06:21:21;1.08;;;0.70;;
45764;SDS011;31474;45.332;10.230;2022-08-19T06:23:49;2.17;;;0.60;;
45764;SDS011;31474;45.332;10.230;2022-08-19T06:26:16;2.08;;;0.85;;
45764;SDS011;31474;45.332;10.230;2022-08-19T06:28:43;1.35;;;0.75;;
45764;SDS011;31474;45.332;10.230;2022-08-19T06:31:33;0.85;;;0.57;;
45764;SDS011;31474;45.332;10.230;2022-08-19T06:33:59;1.63;;;1.00;;
45764;SDS011;31474;45.332;10.230;2022-08-19T06:36:28;2.15;;;0.70;;
45764;SDS011;31474;45.332;10.230;2022-08-19T06:38:59;2.75;;;0.88;;
45764;SDS011;31474;45.332;10.230;2022-08-19T06:41:36;1.98;;;0.77;;
45764;SDS011;31474;45.332;10.230;2022-08-19T06:44:05;3.63;;;0.90;;
45764;SDS011;31474;45.332;10.230;2022-08-19T06:46:32;1.52;;;0.60;;
45764;SDS011;31474;45.332;10.230;2022-08-19T06:48:58;3.47;;;1.27;;
45764;SDS011;31474;45.332;10.230;2022-08-19T06:51:24;4.03;;;0.80;;
45764;SDS011;31474;45.332;10.230;2022-08-19T06:53:52;2.85;;;0.80;;
45764;SDS011;31474;45.332;10.230;2022-08-19T06:56:19;1.17;;;0.60;;
45764;SDS011;31474;45.332;10.230;2022-08-19T06:58:48;2.28;;;0.80;;
45764;SDS011;31474;45.332;10.230;2022-08-19T07:01:16;1.67;;;0.82;;
45764;SDS011;31474;45.332;10.230;2022-08-19T07:03:42;2.45;;;1.00;;
45764;SDS011;31474;45.332;10.230;2022-08-19T07:06:10;1.70;;;0.90;;
45764;SDS011;31474;45.332;10.230;2022-08-19T07:08:42;2.80;;;0.98;;
45764;SDS011;31474;45.332;10.230;2022-08-19T07:11:15;3.22;;;1.10;;
45764;SDS011;31474;45.332;10.230;2022-08-19T07:13:43;3.45;;;1.17;;
45764;SDS011;31474;45.332;10.230;2022-08-19T07:16:11;1.92;;;1.27;;
45764;SDS011;31474;45.332;10.230;2022-08-19T07:18:39;2.78;;;1.00;;
45764;SDS011;31474;45.332;10.230;2022-08-19T07:21:06;5.50;;;1.15;;
45764;SDS011;31474;45.332;10.230;2022-08-19T07:23:37;4.32;;;1.02;;
45764;SDS011;31474;45.332;10.230;2022-08-19T07:26:07;3.25;;;1.13;;
45764;SDS011;31474;45.332;10.230;2022-08-19T07:28:34;3.70;;;1.00;;
45764;SDS011;31474;45.332;10.230;2022-08-19T07:31:03;1.67;;;0.82;;
45764;SDS011;31474;45.332;10.230;2022-08-19T07:33:31;2.00;;;0.90;;
45764;SDS011;31474;45.332;10.230;2022-08-19T07:35:57;3.00;;;1.45;;
45764;SDS011;31474;45.332;10.230;2022-08-19T07:38:24;2.95;;;0.90;;
45764;SDS011;31474;45.332;10.230;2022-08-19T07:40:50;1.15;;;0.85;;
45764;SDS011;31474;45.332;10.230;2022-08-19T07:43:16;2.20;;;1.10;;
45764;SDS011;31474;45.332;10.230;2022-08-19T07:45:50;2.88;;;0.88;;
45764;SDS011;31474;45.332;10.230;2022-08-19T07:48:17;1.30;;;1.05;;
45764;SDS011;31474;45.332;10.230;2022-08-19T07:50:43;1.90;;;1.00;;
45764;SDS011;31474;45.332;10.230;2022-08-19T07:53:09;2.35;;;1.40;;
45764;SDS011;31474;45.332;10.230;2022-08-19T07:55:36;1.10;;;0.98;;
45764;SDS011;31474;45.332;10.230;2022-08-19T07:58:02;5.75;;;1.13;;
45764;SDS011;31474;45.332;10.230;2022-08-19T08:00:29;1.20;;;0.93;;
45764;SDS011;31474;45.332;10.230;2022-08-19T08:02:55;2.88;;;1.50;;
45764;SDS011;31474;45.332;10.230;2022-08-19T08:05:21;2.70;;;1.30;;
45764;SDS011;31474;45.332;10.230;2022-08-19T08:08:06;2.05;;;1.13;;
45764;SDS011;31474;45.332;10.230;2022-08-19T08:11:07;2.58;;;1.10;;
45764;SDS011;31474;45.332;10.230;2022-08-19T08:13:34;3.33;;;1.60;;
45764;SDS011;31474;45.332;10.230;2022-08-19T08:16:02;1.65;;;1.20;;
45764;SDS011;31474;45.332;10.230;2022-08-19T08:18:28;2.58;;;1.42;;
45764;SDS011;31474;45.332;10.230;2022-08-19T08:20:54;2.22;;;1.38;;
45764;SDS011;31474;45.332;10.230;2022-08-19T08:23:20;1.48;;;1.20;;
45764;SDS011;31474;45.332;10.230;2022-08-19T08:25:54;3.70;;;1.40;;
45764;SDS011;31474;45.332;10.230;2022-08-19T08:28:22;2.75;;;1.10;;
45764;SDS011;31474;45.332;10.230;2022-08-19T08:30:49;1.38;;;1.20;;
45764;SDS011;31474;45.332;10.230;2022-08-19T08:33:19;1.90;;;1.13;;
45764;SDS011;31474;45.332;10.230;2022-08-19T08:35:46;3.03;;;1.83;;
45764;SDS011;31474;45.332;10.230;2022-08-19T08:38:12;3.03;;;1.50;;
45764;SDS011;31474;45.332;10.230;2022-08-19T08:43:28;1.55;;;1.00;;
45764;SDS011;31474;45.332;10.230;2022-08-19T08:46:00;2.95;;;1.15;;
45764;SDS011;31474;45.332;10.230;2022-08-19T08:48:32;2.22;;;1.27;;
45764;SDS011;31474;45.332;10.230;2022-08-19T08:51:12;3.33;;;1.02;;
45764;SDS011;31474;45.332;10.230;2022-08-19T08:56:20;1.98;;;0.90;;
45764;SDS011;31474;45.332;10.230;2022-08-19T08:59:04;1.85;;;1.10;;
45764;SDS011;31474;45.332;10.230;2022-08-19T09:01:45;3.45;;;1.10;;
45764;SDS011;31474;45.332;10.230;2022-08-19T09:04:10;1.20;;;0.90;;
45764;SDS011;31474;45.332;10.230;2022-08-19T09:07:02;2.72;;;1.15;;
45764;SDS011;31474;45.332;10.230;2022-08-19T09:17:26;4.20;;;1.10;;
45764;SDS011;31474;45.332;10.230;2022-08-19T09:20:02;2.13;;;1.42;;
45764;SDS011;31474;45.332;10.230;2022-08-19T09:22:35;1.30;;;0.90;;
45764;SDS011;31474;45.332;10.230;2022-08-19T09:25:03;1.27;;;1.00;;
45764;SDS011;31474;45.332;10.230;2022-08-19T09:27:30;1.65;;;1.27;;
45764;SDS011;31474;45.332;10.230;2022-08-19T09:29:57;4.65;;;1.20;;
45764;SDS011;31474;45.332;10.230;2022-08-19T09:32:22;1.27;;;0.82;;
45764;SDS011;31474;45.332;10.230;2022-08-19T09:34:50;2.42;;;1.00;;
45764;SDS011;31474;45.332;10.230;2022-08-19T09:37:18;3.10;;;1.15;;
45764;SDS011;31474;45.332;10.230;2022-08-19T09:39:43;2.28;;;1.00;;
45764;SDS011;31474;45.332;10.230;2022-08-19T09:42:09;1.60;;;0.70;;
45764;SDS011;31474;45.332;10.230;2022-08-19T09:44:40;1.52;;;0.80;;
45764;SDS011;31474;45.332;10.230;2022-08-19T09:47:07;1.85;;;1.15;;
45764;SDS011;31474;45.332;10.230;2022-08-19T09:49:34;1.70;;;0.90;;
45764;SDS011;31474;45.332;10.230;2022-08-19T09:52:00;2.75;;;1.30;;
45764;SDS011;31474;45.332;10.230;2022-08-19T09:54:26;1.40;;;0.93;;
45764;SDS011;31474;45.332;10.230;2022-08-19T09:56:53;1.27;;;1.00;;
45764;SDS011;31474;45.332;10.230;2022-08-19T09:59:18;1.70;;;1.20;;
45764;SDS011;31474;45.332;10.230;2022-08-19T10:01:44;1.48;;;0.90;;
45764;SDS011;31474;45.332;10.230;2022-08-19T10:04:10;1.25;;;1.02;;
45764;SDS011;31474;45.332;10.230;2022-08-19T10:06:37;2.28;;;0.90;;
45764;SDS011;31474;45.332;10.230;2022-08-19T10:09:05;1.35;;;0.90;;
45764;SDS011;31474;45.332;10.230;2022-08-19T10:11:33;1.02;;;0.75;;
45764;SDS011;31474;45.332;10.230;2022-08-19T10:14:00;1.17;;;0.85;;
45764;SDS011;31474;45.332;10.230;2022-08-19T10:16:27;1.00;;;0.90;;
45764;SDS011;31474;45.332;10.230;2022-08-19T10:18:53;1.02;;;0.80;;
45764;SDS011;31474;45.332;10.230;2022-08-19T10:21:20;1.90;;;0.75;;
45764;SDS011;31474;45.332;10.230;2022-08-19T10:23:51;2.85;;;1.10;;
45764;SDS011;31474;45.332;10.230;2022-08-19T10:26:21;2.88;;;0.88;;
45764;SDS011;31474;45.332;10.230;2022-08-19T10:28:48;3.80;;;1.17;;
45764;SDS011;31474;45.332;10.230;2022-08-19T10:31:22;1.08;;;0.80;;
45764;SDS011;31474;45.332;10.230;2022-08-19T10:33:52;1.45;;;0.85;;
45764;SDS011;31474;45.332;10.230;2022-08-19T10:36:23;1.23;;;0.70;;
45764;SDS011;31474;45.332;10.230;2022-08-19T10:38:55;1.20;;;0.80;;
45764;SDS011;31474;45.332;10.230;2022-08-19T10:41:24;0.82;;;0.60;;
45764;SDS011;31474;45.332;10.230;2022-08-19T10:43:52;1.13;;;0.75;;
45764;SDS011;31474;45.332;10.230;2022-08-19T10:46:19;0.95;;;0.70;;
45764;SDS011;31474;45.332;10.230;2022-08-19T10:48:47;1.70;;;0.82;;
45764;SDS011;31474;45.332;10.230;2022-08-19T10:51:12;1.15;;;0.88;;
45764;SDS011;31474;45.332;10.230;2022-08-19T10:53:57;1.20;;;0.82;;
45764;SDS011;31474;45.332;10.230;2022-08-19T10:56:23;3.88;;;0.95;;
45764;SDS011;31474;45.332;10.230;2022-08-19T10:59:08;1.88;;;1.08;;
45764;SDS011;31474;45.332;10.230;2022-08-19T11:01:36;0.82;;;0.63;;
45764;SDS011;31474;45.332;10.230;2022-08-19T11:04:02;1.33;;;0.63;;
45764;SDS011;31474;45.332;10.230;2022-08-19T11:06:31;1.20;;;0.80;;
45764;SDS011;31474;45.332;10.230;2022-08-19T11:08:57;2.45;;;0.77;;
45764;SDS011;31474;45.332;10.230;2022-08-19T11:11:23;2.45;;;0.80;;
45764;SDS011;31474;45.332;10.230;2022-08-19T11:13:49;2.88;;;1.00;;
45764;SDS011;31474;45.332;10.230;2022-08-19T11:16:16;2.42;;;0.82;;
45764;SDS011;31474;45.332;10.230;2022-08-19T11:18:45;2.80;;;1.00;;
45764;SDS011;31474;45.332;10.230;2022-08-19T11:21:20;2.47;;;0.80;;
45764;SDS011;31474;45.332;10.230;2022-08-19T11:23:49;2.08;;;0.80;;
45764;SDS011;31474;45.332;10.230;2022-08-19T11:26:17;1.25;;;0.85;;
45764;SDS011;31474;45.332;10.230;2022-08-19T11:28:44;0.75;;;0.40;;
45764;SDS011;31474;45.332;10.230;2022-08-19T11:31:11;0.63;;;0.30;;
45764;SDS011;31474;45.332;10.230;2022-08-19T11:33:39;1.58;;;0.77;;
45764;SDS011;31474;45.332;10.230;2022-08-19T11:36:05;1.20;;;0.70;;
45764;SDS011;31474;45.332;10.230;2022-08-19T11:38:32;2.65;;;0.50;;
45764;SDS011;31474;45.332;10.230;2022-08-19T11:41:01;3.28;;;0.77;;
45764;SDS011;31474;45.332;10.230;2022-08-19T11:43:29;2.33;;;0.43;;
45764;SDS011;31474;45.332;10.230;2022-08-19T11:45:56;4.20;;;0.50;;
45764;SDS011;31474;45.332;10.230;2022-08-19T11:48:23;1.10;;;0.55;;
45764;SDS011;31474;45.332;10.230;2022-08-19T11:50:50;0.73;;;0.32;;
45764;SDS011;31474;45.332;10.230;2022-08-19T11:53:17;0.95;;;0.30;;
45764;SDS011;31474;45.332;10.230;2022-08-19T11:55:45;3.20;;;0.47;;
45764;SDS011;31474;45.332;10.230;2022-08-19T11:58:11;1.38;;;0.30;;
45764;SDS011;31474;45.332;10.230;2022-08-19T12:00:39;2.05;;;0.60;;
45764;SDS011;31474;45.332;10.230;2022-08-19T12:03:05;0.30;;;0.20;;
45764;SDS011;31474;45.332;10.230;2022-08-19T12:05:31;0.80;;;0.30;;
45764;SDS011;31474;45.332;10.230;2022-08-19T12:07:56;1.05;;;0.25;;
45764;SDS011;31474;45.332;10.230;2022-08-19T12:10:22;2.50;;;0.52;;
45764;SDS011;31474;45.332;10.230;2022-08-19T12:12:48;1.95;;;0.30;;
45764;SDS011;31474;45.332;10.230;2022-08-19T12:15:14;1.67;;;0.30;;
45764;SDS011;31474;45.332;10.230;2022-08-19T12:17:40;1.27;;;0.50;;
45764;SDS011;31474;45.332;10.230;2022-08-19T12:20:07;3.25;;;0.40;;
45764;SDS011;31474;45.332;10.230;2022-08-19T12:22:35;1.00;;;0.50;;
45764;SDS011;31474;45.332;10.230;2022-08-19T12:25:02;2.38;;;0.50;;
45764;SDS011;31474;45.332;10.230;2022-08-19T12:27:29;1.15;;;0.65;;
45764;SDS011;31474;45.332;10.230;2022-08-19T12:29:55;1.13;;;0.50;;
45764;SDS011;31474;45.332;10.230;2022-08-19T12:32:21;2.25;;;0.68;;
45764;SDS011;31474;45.332;10.230;2022-08-19T12:34:49;0.93;;;0.40;;
45764;SDS011;31474;45.332;10.230;2022-08-19T12:37:15;3.08;;;0.90;;
45764;SDS011;31474;45.332;10.230;2022-08-19T12:39:41;1.10;;;0.82;;
45764;SDS011;31474;45.332;10.230;2022-08-19T12:42:08;2.05;;;0.85;;
45764;SDS011;31474;45.332;10.230;2022-08-19T12:44:36;2.83;;;0.70;;
45764;SDS011;31474;45.332;10.230;2022-08-19T12:47:04;2.15;;;0.90;;
45764;SDS011;31474;45.332;10.230;2022-08-19T12:49:30;4.00;;;2.05;;
45764;SDS011;31474;45.332;10.230;2022-08-19T12:51:59;1.17;;;0.85;;
45764;SDS011;31474;45.332;10.230;2022-08-19T12:54:25;1.75;;;0.98;;
45764;SDS011;31474;45.332;10.230;2022-08-19T12:56:52;2.70;;;1.40;;
45764;SDS011;31474;45.332;10.230;2022-08-19T12:59:18;1.55;;;0.93;;
45764;SDS011;31474;45.332;10.230;2022-08-19T13:01:44;1.48;;;1.30;;
45764;SDS011;31474;45.332;10.230;2022-08-19T13:04:10;3.03;;;1.83;;
45764;SDS011;31474;45.332;10.230;2022-08-19T13:06:36;2.20;;;1.58;;
45764;SDS011;31474;45.332;10.230;2022-08-19T13:09:03;2.92;;;1.52;;
45764;SDS011;31474;45.332;10.230;2022-08-19T13:11:29;3.38;;;1.60;;
45764;SDS011;31474;45.332;10.230;2022-08-19T13:13:58;2.70;;;1.30;;
45764;SDS011;31474;45.332;10.230;2022-08-19T13:16:24;2.17;;;1.52;;
45764;SDS011;31474;45.332;10.230;2022-08-19T13:18:52;3.67;;;1.60;;
45764;SDS011;31474;45.332;10.230;2022-08-19T13:21:19;3.67;;;1.30;;
45764;SDS011;31474;45.332;10.230;2022-08-19T13:23:47;3.22;;;1.88;;
45764;SDS011;31474;45.332;10.230;2022-08-19T13:26:13;2.50;;;1.80;;
45764;SDS011;31474;45.332;10.230;2022-08-19T13:28:40;2.33;;;1.70;;
45764;SDS011;31474;45.332;10.230;2022-08-19T13:31:25;1.73;;;1.48;;
45764;SDS011;31474;45.332;10.230;2022-08-19T13:34:11;6.47;;;1.40;;
45764;SDS011;31474;45.332;10.230;2022-08-19T13:36:38;2.20;;;1.63;;
45764;SDS011;31474;45.332;10.230;2022-08-19T13:39:04;2.03;;;1.08;;
45764;SDS011;31474;45.332;10.230;2022-08-19T13:41:32;2.03;;;1.20;;
45764;SDS011;31474;45.332;10.230;2022-08-19T13:43:58;1.65;;;1.27;;
45764;SDS011;31474;45.332;10.230;2022-08-19T13:46:24;1.17;;;0.90;;
45764;SDS011;31474;45.332;10.230;2022-08-19T13:48:50;1.75;;;0.88;;
45764;SDS011;31474;45.332;10.230;2022-08-19T13:51:16;1.65;;;0.60;;
45764;SDS011;31474;45.332;10.230;2022-08-19T13:53:42;0.82;;;0.47;;
45764;SDS011;31474;45.332;10.230;2022-08-19T13:56:09;1.77;;;0.75;;
45764;SDS011;31474;45.332;10.230;2022-08-19T13:58:37;1.92;;;0.70;;
45764;SDS011;31474;45.332;10.230;2022-08-19T14:01:03;1.58;;;1.02;;
45764;SDS011;31474;45.332;10.230;2022-08-19T14:03:30;2.05;;;0.82;;
45764;SDS011;31474;45.332;10.230;2022-08-19T14:05:57;1.58;;;0.85;;
45764;SDS011;31474;45.332;10.230;2022-08-19T14:08:24;2.97;;;1.13;;
45764;SDS011;31474;45.332;10.230;2022-08-19T14:10:52;2.30;;;0.80;;
45764;SDS011;31474;45.332;10.230;2022-08-19T14:13:19;2.80;;;1.25;;
45764;SDS011;31474;45.332;10.230;2022-08-19T14:15:46;2.95;;;1.10;;
45764;SDS011;31474;45.332;10.230;2022-08-19T14:18:13;2.35;;;1.20;;
45764;SDS011;31474;45.332;10.230;2022-08-19T14:20:40;5.57;;;1.10;;
45764;SDS011;31474;45.332;10.230;2022-08-19T14:23:06;4.10;;;1.42;;
45764;SDS011;31474;45.332;10.230;2022-08-19T14:25:32;1.85;;;1.10;;
45764;SDS011;31474;45.332;10.230;2022-08-19T14:27:59;1.63;;;1.08;;
45764;SDS011;31474;45.332;10.230;2022-08-19T14:30:27;2.45;;;1.10;;
45764;SDS011;31474;45.332;10.230;2022-08-19T14:32:55;1.70;;;1.30;;
45764;SDS011;31474;45.332;10.230;2022-08-19T14:35:21;2.75;;;1.25;;
45764;SDS011;31474;45.332;10.230;2022-08-19T14:37:48;3.72;;;1.10;;
45764;SDS011;31474;45.332;10.230;2022-08-19T14:40:17;2.17;;;1.50;;
45764;SDS011;31474;45.332;10.230;2022-08-19T14:42:48;1.85;;;1.20;;
45764;SDS011;31474;45.332;10.230;2022-08-19T14:45:13;2.83;;;1.42;;
45764;SDS011;31474;45.332;10.230;2022-08-19T14:47:39;3.25;;;1.02;;
45764;SDS011;31474;45.332;10.230;2022-08-19T14:50:09;2.78;;;1.00;;
45764;SDS011;31474;45.332;10.230;2022-08-19T14:52:36;2.85;;;1.48;;
45764;SDS011;31474;45.332;10.230;2022-08-19T14:55:03;4.00;;;1.40;;
45764;SDS011;31474;45.332;10.230;2022-08-19T14:57:29;3.30;;;1.48;;